Time;durP1;ratioP1;P1;durP2;ratioP2;P2;SDS_P1;SDS_P2;PMS_P1;PMS_P2;Temp;Humidity;BMP_temperature;BMP_pressure;BME280_temperature;BME280_humidity;BME280_pressure;Samples;Min_cycle;Max_cycle;Signal;HPM_P1;HPM_P2
2023/04/04 00:00:38;;;;;;;1.75;0.40;;;3.90;65.60;;;;;;5070462;28;20056;-80
2023/04/04 00:03:06;;;;;;;1.27;0.50;;;3.80;65.60;;;;;;5085944;27;20794;-80
2023/04/04 00:05:34;;;;;;;2.03;0.55;;;3.20;65.20;;;;;;5073568;28;20047;-80
2023/04/04 00:08:06;;;;;;;2.85;0.73;;;2.90;64.80;;;;;;5076491;28;22148;-80
2023/04/04 00:10:33;;;;;;;3.80;0.50;;;3.60;64.70;;;;;;5087468;28;20078;-81
2023/04/04 00:13:01;;;;;;;2.60;0.45;;;3.70;65.30;;;;;;5085499;28;20035;-80
2023/04/04 00:15:33;;;;;;;2.28;0.65;;;3.70;64.90;;;;;;5077168;28;20169;-80
2023/04/04 00:18:02;;;;;;;1.95;0.32;;;3.70;64.60;;;;;;5069828;28;20418;-79
2023/04/04 00:20:30;;;;;;;2.47;0.60;;;3.60;64.40;;;;;;5062384;28;20044;-80
2023/04/04 00:22:58;;;;;;;2.08;0.88;;;3.60;64.50;;;;;;5086460;28;20052;-81
2023/04/04 00:25:25;;;;;;;1.48;0.35;;;3.70;65.20;;;;;;5055789;28;20203;-80
2023/04/04 00:27:59;;;;;;;4.63;0.60;;;3.60;64.90;;;;;;5086587;28;20047;-80
2023/04/04 00:30:28;;;;;;;2.72;0.30;;;3.50;65.00;;;;;;5049164;28;20051;-80
2023/04/04 00:32:56;;;;;;;2.08;0.50;;;3.40;65.10;;;;;;5086135;28;20059;-80
2023/04/04 00:35:24;;;;;;;3.20;0.70;;;3.30;65.50;;;;;;5080594;28;20056;-80
2023/04/04 00:37:52;;;;;;;5.38;0.60;;;3.40;66.30;;;;;;5081605;28;20055;-80
2023/04/04 00:40:19;;;;;;;2.00;0.43;;;3.30;65.50;;;;;;5069045;28;20052;-80
2023/04/04 00:42:47;;;;;;;1.48;0.52;;;3.30;66.00;;;;;;5066598;28;20063;-80
2023/04/04 00:45:15;;;;;;;2.20;0.43;;;3.30;66.10;;;;;;5088538;28;20446;-80
2023/04/04 00:47:43;;;;;;;2.60;0.95;;;3.20;66.20;;;;;;5066402;28;20600;-80
2023/04/04 00:50:11;;;;;;;2.85;0.70;;;3.30;66.70;;;;;;5095271;27;20056;-80
2023/04/04 00:52:38;;;;;;;2.70;1.17;;;2.20;65.60;;;;;;5080186;28;20044;-80
2023/04/04 00:55:07;;;;;;;2.40;0.50;;;3.20;66.20;;;;;;5094519;28;20043;-80
2023/04/04 00:57:34;;;;;;;4.80;0.57;;;3.10;65.80;;;;;;5079667;28;20085;-80
2023/04/04 01:00:05;;;;;;;2.20;0.70;;;3.10;66.30;;;;;;5069959;27;20502;-80
2023/04/04 01:02:32;;;;;;;2.17;0.55;;;2.00;66.20;;;;;;5081211;27;20786;-80
2023/04/04 01:05:02;;;;;;;3.22;0.55;;;3.20;67.30;;;;;;5081775;28;20046;-79
2023/04/04 01:07:29;;;;;;;1.95;0.40;;;3.10;66.70;;;;;;5047752;27;22311;-80
2023/04/04 01:10:00;;;;;;;1.98;0.45;;;3.10;67.00;;;;;;5078926;27;20059;-78
2023/04/04 01:12:28;;;;;;;1.65;0.40;;;3.10;66.90;;;;;;5077788;27;20731;-81
2023/04/04 01:14:55;;;;;;;5.00;0.55;;;2.90;66.80;;;;;;5065939;27;20053;-81
2023/04/04 01:17:24;;;;;;;2.58;0.82;;;2.90;67.20;;;;;;5050944;27;20048;-81
2023/04/04 01:20:15;;;;;;;2.28;0.50;;;3.20;67.20;;;;;;5050748;27;20048;-79
2023/04/04 01:22:50;;;;;;;2.15;0.65;;;3.00;67.90;;;;;;5062046;28;20055;-80
2023/04/04 01:25:25;;;;;;;1.70;0.60;;;3.00;67.70;;;;;;5087567;27;20135;-80
2023/04/04 01:27:55;;;;;;;3.20;0.60;;;3.00;68.00;;;;;;5077518;27;20047;-78
2023/04/04 01:30:24;;;;;;;2.60;0.60;;;2.90;67.20;;;;;;5063679;27;20044;-81
2023/04/04 01:33:05;;;;;;;5.13;0.82;;;2.80;67.70;;;;;;5052732;27;20070;-81
2023/04/04 01:35:51;;;;;;;3.40;0.60;;;2.80;67.80;;;;;;5062959;27;20086;-81
2023/04/04 01:39:01;;;;;;;2.35;0.73;;;2.70;67.70;;;;;;5052646;27;20052;-80
2023/04/04 01:41:34;;;;;;;2.83;0.60;;;2.60;68.10;;;;;;5077382;27;20052;-80
2023/04/04 01:44:02;;;;;;;3.78;0.80;;;2.70;68.30;;;;;;5075037;28;20043;-79
2023/04/04 01:46:31;;;;;;;3.53;1.30;;;2.70;68.50;;;;;;5066982;27;20449;-80
2023/04/04 01:48:59;;;;;;;4.82;1.08;;;2.70;68.50;;;;;;5073936;27;20048;-80
2023/04/04 01:51:30;;;;;;;1.63;0.40;;;2.70;68.80;;;;;;5063896;27;20138;-80
2023/04/04 01:53:58;;;;;;;3.22;0.85;;;2.60;68.90;;;;;;5055900;28;20272;-79
2023/04/04 01:56:26;;;;;;;3.22;0.70;;;2.70;68.90;;;;;;5066855;28;20058;-80
2023/04/04 01:58:54;;;;;;;2.22;0.50;;;2.80;69.30;;;;;;5077338;28;20073;-80
2023/04/04 02:01:21;;;;;;;2.65;0.82;;;2.50;69.00;;;;;;5081337;28;20059;-80
2023/04/04 02:03:49;;;;;;;4.45;1.20;;;2.70;69.50;;;;;;5072486;27;22370;-79
2023/04/04 02:06:16;;;;;;;2.05;0.50;;;2.60;69.20;;;;;;5097098;27;20105;-80
2023/04/04 02:08:47;;;;;;;3.63;0.68;;;2.60;69.80;;;;;;5073516;27;20051;-80
2023/04/04 02:11:14;;;;;;;3.42;0.85;;;2.40;69.60;;;;;;5060578;27;22368;-80
2023/04/04 02:13:43;;;;;;;3.47;0.77;;;2.50;69.90;;;;;;5092864;27;20185;-80
2023/04/04 02:16:14;;;;;;;4.27;0.60;;;2.50;70.20;;;;;;5088873;27;20040;-80
2023/04/04 02:18:41;;;;;;;2.33;0.57;;;2.50;70.00;;;;;;5080752;27;20055;-81
2023/04/04 02:21:09;;;;;;;2.45;0.80;;;2.50;70.20;;;;;;5060931;27;22382;-78
2023/04/04 02:23:37;;;;;;;1.70;0.88;;;2.40;70.50;;;;;;5061759;27;20082;-79
2023/04/04 02:26:05;;;;;;;3.03;0.82;;;2.40;70.90;;;;;;5064757;27;20051;-79
2023/04/04 02:28:32;;;;;;;2.53;0.63;;;2.40;70.90;;;;;;5077553;27;20185;-81
2023/04/04 02:31:01;;;;;;;3.00;0.77;;;2.30;70.80;;;;;;5061983;28;20054;-80
2023/04/04 02:33:29;;;;;;;5.75;1.00;;;2.40;70.70;;;;;;5065609;28;20515;-80
2023/04/04 02:35:59;;;;;;;2.88;1.00;;;2.60;71.40;;;;;;5048077;27;20407;-78
2023/04/04 02:38:27;;;;;;;2.67;0.85;;;2.50;70.90;;;;;;5049644;27;20043;-80
2023/04/04 02:40:55;;;;;;;3.33;0.82;;;2.50;70.70;;;;;;5072975;27;20036;-80
2023/04/04 02:43:22;;;;;;;1.42;0.50;;;2.30;70.80;;;;;;5081624;27;20050;-80
2023/04/04 02:45:51;;;;;;;2.78;0.77;;;2.40;71.10;;;;;;5075513;27;20039;-78
2023/04/04 02:48:21;;;;;;;4.15;0.80;;;2.50;71.20;;;;;;5051906;27;20535;-77
2023/04/04 02:50:51;;;;;;;4.35;0.70;;;2.40;71.20;;;;;;5075926;27;20043;-78
2023/04/04 02:53:19;;;;;;;3.15;0.50;;;2.40;71.20;;;;;;5064714;28;20073;-80
2023/04/04 02:55:49;;;;;;;2.63;0.60;;;2.40;71.40;;;;;;5063055;27;20518;-80
2023/04/04 02:58:16;;;;;;;2.78;0.73;;;2.40;72.00;;;;;;5067959;27;20044;-80
2023/04/04 03:00:46;;;;;;;3.38;0.90;;;2.30;71.60;;;;;;5070988;27;20054;-80
2023/04/04 03:03:13;;;;;;;2.72;0.70;;;2.10;71.80;;;;;;5074317;27;20903;-80
2023/04/04 03:05:44;;;;;;;2.83;0.60;;;2.30;72.00;;;;;;5057066;27;20047;-80
2023/04/04 03:08:11;;;;;;;3.15;0.60;;;1.60;71.70;;;;;;5056139;27;20048;-80
2023/04/04 03:10:39;;;;;;;1.98;0.65;;;2.30;72.20;;;;;;5053907;28;20063;-81
2023/04/04 03:13:07;;;;;;;3.05;0.70;;;2.20;72.10;;;;;;5079399;28;20498;-80
2023/04/04 03:15:34;;;;;;;3.17;1.02;;;2.20;72.10;;;;;;5052978;28;20569;-80
2023/04/04 03:18:04;;;;;;;4.22;0.70;;;2.30;72.30;;;;;;5047747;27;20512;-80
2023/04/04 03:20:33;;;;;;;2.55;0.50;;;2.30;72.40;;;;;;5051861;28;22415;-80
2023/04/04 03:23:00;;;;;;;4.20;0.85;;;2.30;72.50;;;;;;5067155;27;20047;-81
2023/04/04 03:25:27;;;;;;;2.33;0.57;;;2.20;72.60;;;;;;5052169;28;20056;-80
2023/04/04 03:27:56;;;;;;;5.57;0.95;;;2.30;72.80;;;;;;5085292;27;20093;-80
2023/04/04 03:30:25;;;;;;;3.03;0.90;;;2.20;72.70;;;;;;5072992;27;20741;-79
2023/04/04 03:32:54;;;;;;;3.58;0.90;;;2.20;73.20;;;;;;5080635;27;20222;-80
2023/04/04 03:35:22;;;;;;;3.70;0.90;;;1.80;72.90;;;;;;5060044;27;20055;-80
2023/04/04 03:37:49;;;;;;;1.42;0.52;;;2.20;73.30;;;;;;5073316;27;20766;-81
2023/04/04 03:40:18;;;;;;;3.17;0.88;;;2.10;73.00;;;;;;5048875;28;20050;-81
2023/04/04 03:42:45;;;;;;;3.15;0.77;;;2.10;73.20;;;;;;5056207;27;20497;-79
2023/04/04 03:45:18;;;;;;;3.00;1.00;;;2.10;73.60;;;;;;5057147;27;20426;-80
2023/04/04 03:47:48;;;;;;;2.80;0.60;;;2.00;73.80;;;;;;5071499;27;20426;-79
2023/04/04 03:50:16;;;;;;;2.38;0.70;;;1.90;73.80;;;;;;5073484;27;20506;-80
2023/04/04 03:52:49;;;;;;;5.10;0.90;;;2.00;74.10;;;;;;5082424;27;20040;-79
2023/04/04 03:55:17;;;;;;;3.35;0.80;;;1.90;74.20;;;;;;5055402;28;20040;-80
2023/04/04 03:57:45;;;;;;;4.35;1.23;;;1.90;74.40;;;;;;5042613;28;20598;-80
2023/04/04 04:00:15;;;;;;;4.90;1.00;;;1.70;74.40;;;;;;5032084;28;20060;-80
2023/04/04 04:02:45;;;;;;;4.63;0.80;;;1.90;74.70;;;;;;5044996;28;20115;-81
2023/04/04 04:05:13;;;;;;;3.05;0.60;;;1.90;74.70;;;;;;5046530;28;20052;-81
2023/04/04 04:07:43;;;;;;;3.65;1.20;;;1.90;74.80;;;;;;5034815;28;20074;-80
2023/04/04 04:10:12;;;;;;;2.08;0.88;;;1.90;74.60;;;;;;5048807;28;20048;-80
2023/04/04 04:12:40;;;;;;;2.65;0.80;;;2.00;74.80;;;;;;5046168;28;20044;-80
2023/04/04 04:15:08;;;;;;;3.58;1.20;;;0.50;74.10;;;;;;5060651;28;20059;-80
2023/04/04 04:17:39;;;;;;;3.95;0.65;;;1.90;74.70;;;;;;5048091;28;20050;-80
2023/04/04 04:20:09;;;;;;;3.75;1.45;;;1.90;74.70;;;;;;5053554;28;20054;-81
2023/04/04 04:22:50;;;;;;;4.95;1.27;;;1.80;74.60;;;;;;5041177;28;20486;-80
2023/04/04 04:25:20;;;;;;;6.22;1.88;;;1.90;74.70;;;;;;5057177;28;20477;-80
2023/04/04 04:28:07;;;;;;;4.53;1.50;;;1.80;74.70;;;;;;5060209;28;20048;-81
2023/04/04 04:30:35;;;;;;;2.92;1.27;;;1.30;74.50;;;;;;5073631;28;20422;-80
2023/04/04 04:33:03;;;;;;;6.28;1.35;;;1.90;74.70;;;;;;5075168;27;20047;-81
2023/04/04 04:35:40;;;;;;;4.43;0.93;;;1.80;74.60;;;;;;5097431;27;20101;-80
2023/04/04 04:38:09;;;;;;;3.33;1.35;;;1.90;74.70;;;;;;5071589;27;20915;-81
2023/04/04 04:40:38;;;;;;;3.80;0.93;;;1.70;74.60;;;;;;5068380;27;20140;-80
2023/04/04 04:43:17;;;;;;;6.85;1.48;;;1.60;74.40;;;;;;5078190;27;20079;-80
2023/04/04 04:45:46;;;;;;;4.60;1.00;;;2.00;74.30;;;;;;5065114;27;20056;-80
2023/04/04 04:48:15;;;;;;;2.55;1.10;;;1.90;74.30;;;;;;5061793;27;20043;-80
2023/04/04 04:50:47;;;;;;;4.90;1.48;;;1.90;74.40;;;;;;5098790;27;20036;-80
2023/04/04 04:53:23;;;;;;;7.22;2.67;;;1.60;74.40;;;;;;5069319;28;22295;-78
2023/04/04 04:55:52;;;;;;;2.83;0.90;;;1.90;73.80;;;;;;5052541;27;20051;-80
2023/04/04 04:58:22;;;;;;;2.58;0.85;;;1.90;74.00;;;;;;5088667;27;20032;-80
2023/04/04 05:00:56;;;;;;;4.25;1.25;;;1.90;74.00;;;;;;5088853;27;20426;-80
2023/04/04 05:03:32;;;;;;;4.05;1.73;;;1.90;73.80;;;;;;5074489;27;20055;-79
2023/04/04 05:06:01;;;;;;;2.33;1.33;;;1.90;73.90;;;;;;5076683;27;20092;-79
2023/04/04 05:08:28;;;;;;;2.53;0.77;;;2.20;73.60;;;;;;5063465;27;20419;-80
2023/04/04 05:11:21;;;;;;;4.05;0.90;;;1.00;73.50;;;;;;5080827;27;20063;-81
2023/04/04 05:13:49;;;;;;;2.78;0.98;;;2.10;74.00;;;;;;5092048;27;20043;-80
2023/04/04 05:16:16;;;;;;;4.47;1.00;;;2.10;73.60;;;;;;5062443;27;20580;-81
2023/04/04 05:18:46;;;;;;;2.95;1.10;;;1.80;73.10;;;;;;5096438;27;20527;-81
2023/04/04 05:21:14;;;;;;;3.58;1.00;;;1.20;73.10;;;;;;5092999;28;20046;-80
2023/04/04 05:23:43;;;;;;;2.35;1.05;;;1.80;73.30;;;;;;5097463;27;20043;-80
2023/04/04 05:26:14;;;;;;;4.03;1.20;;;1.90;73.40;;;;;;5118094;27;20419;-80
2023/04/04 05:28:42;;;;;;;2.90;1.30;;;2.20;73.40;;;;;;5114071;27;20048;-80
2023/04/04 05:31:10;;;;;;;4.15;1.08;;;2.20;73.30;;;;;;5096037;28;20051;-80
2023/04/04 05:33:37;;;;;;;3.67;1.00;;;2.20;73.20;;;;;;5085952;28;20032;-80
2023/04/04 05:36:22;;;;;;;23.05;1.58;;;2.30;73.30;;;;;;5091109;27;20385;-80
2023/04/04 05:38:56;;;;;;;4.07;1.38;;;2.20;73.10;;;;;;5120561;27;20055;-80
2023/04/04 05:41:29;;;;;;;4.68;0.80;;;2.30;73.30;;;;;;5096907;28;20111;-81
2023/04/04 05:44:01;;;;;;;3.28;0.90;;;1.40;72.80;;;;;;5092782;28;20047;-81
2023/04/04 05:46:29;;;;;;;2.67;0.75;;;2.30;72.80;;;;;;5099321;28;20047;-80
2023/04/04 05:48:57;;;;;;;4.70;1.08;;;2.40;73.30;;;;;;5084871;27;20112;-80
2023/04/04 05:51:25;;;;;;;3.42;1.15;;;1.40;71.80;;;;;;5092410;27;20046;-79
2023/04/04 05:54:00;;;;;;;3.88;0.95;;;2.60;72.60;;;;;;5097277;27;20887;-78
2023/04/04 05:56:32;;;;;;;4.10;1.77;;;2.40;71.90;;;;;;5071194;27;20142;-80
2023/04/04 05:59:01;;;;;;;2.63;0.65;;;2.50;72.10;;;;;;5089100;27;20094;-80
2023/04/04 06:01:33;;;;;;;2.65;0.77;;;2.50;71.50;;;;;;5083259;27;20399;-80
2023/04/04 06:04:07;;;;;;;25.55;1.88;;;2.60;71.00;;;;;;5064437;27;20052;-79
2023/04/04 06:06:35;;;;;;;3.95;0.85;;;2.80;70.00;;;;;;5070418;27;20051;-79
2023/04/04 06:09:02;;;;;;;2.78;1.25;;;2.90;69.70;;;;;;5070455;27;22413;-80
2023/04/04 06:11:34;;;;;;;7.50;1.50;;;3.10;68.80;;;;;;5073214;27;20058;-80
2023/04/04 06:14:07;;;;;;;5.70;1.52;;;3.50;68.60;;;;;;5067581;28;20739;-79
2023/04/04 06:16:35;;;;;;;2.88;1.25;;;3.20;68.40;;;;;;5060808;28;20096;-80
2023/04/04 06:19:03;;;;;;;2.97;0.80;;;3.20;68.30;;;;;;5076996;27;20801;-79
2023/04/04 06:21:33;;;;;;;3.00;1.00;;;3.20;67.50;;;;;;5049181;27;20043;-80
2023/04/04 06:24:00;;;;;;;6.28;1.67;;;3.30;67.70;;;;;;5088602;27;20403;-79
2023/04/04 06:26:28;;;;;;;4.50;1.80;;;3.10;67.10;;;;;;5079040;27;20032;-80
2023/04/04 06:28:56;;;;;;;4.30;0.98;;;3.10;67.30;;;;;;5071281;27;20051;-80
2023/04/04 06:31:27;;;;;;;3.30;0.75;;;3.20;67.10;;;;;;5049081;27;20058;-79
2023/04/04 06:34:03;;;;;;;3.42;1.00;;;3.10;66.90;;;;;;5074009;27;20051;-79
2023/04/04 06:36:35;;;;;;;6.53;1.23;;;3.20;66.80;;;;;;5100547;27;20052;-80
2023/04/04 06:39:03;;;;;;;1.90;0.73;;;3.20;67.20;;;;;;5060455;27;20047;-80
2023/04/04 06:41:31;;;;;;;3.58;1.02;;;3.20;67.30;;;;;;5062696;27;20044;-81
2023/04/04 06:43:59;;;;;;;3.50;1.05;;;3.30;67.50;;;;;;5044370;28;22193;-79
2023/04/04 08:06:49;;;;;;;2.72;1.40;;;5.80;62.30;;;;;;6240517;22;20462;-79
2023/04/04 08:09:16;;;;;;;4.32;1.27;;;6.20;63.30;;;;;;6185294;23;20027;-80
2023/04/04 08:11:44;;;;;;;2.45;1.33;;;5.70;62.80;;;;;;6186022;23;20143;-79
2023/04/04 08:14:12;;;;;;;5.75;2.15;;;5.80;62.50;;;;;;6210337;23;20024;-80
2023/04/04 08:16:39;;;;;;;2.95;1.17;;;6.00;63.30;;;;;;6212833;23;20119;-79
2023/04/04 08:19:07;;;;;;;6.30;1.35;;;4.70;61.70;;;;;;6208441;23;20042;-80
2023/04/04 08:21:34;;;;;;;4.32;2.50;;;5.90;62.60;;;;;;6213369;23;20028;-80
2023/04/04 08:24:02;;;;;;;3.45;1.13;;;5.60;62.20;;;;;;6183163;23;20334;-79
2023/04/04 08:26:29;;;;;;;3.80;1.08;;;5.80;62.60;;;;;;6181687;23;20023;-80
2023/04/04 08:28:57;;;;;;;4.45;1.10;;;5.90;62.90;;;;;;6189361;23;20028;-80
2023/04/04 08:31:24;;;;;;;4.60;1.60;;;4.90;61.30;;;;;;6188745;23;20537;-81
2023/04/04 08:33:52;;;;;;;4.75;1.35;;;5.90;62.10;;;;;;6208097;23;20051;-79
2023/04/04 08:36:19;;;;;;;2.50;0.80;;;6.10;61.70;;;;;;6184165;23;20070;-80
2023/04/04 08:38:48;;;;;;;3.15;1.10;;;6.10;62.00;;;;;;6185906;23;20070;-77
2023/04/04 08:41:18;;;;;;;2.22;0.70;;;6.70;61.50;;;;;;6184428;23;20030;-81
2023/04/04 08:43:53;;;;;;;2.03;0.98;;;6.80;60.40;;;;;;6182462;23;20020;-80
2023/04/04 08:46:24;;;;;;;2.78;1.27;;;6.80;61.00;;;;;;6207758;23;20024;-79
2023/04/04 08:48:52;;;;;;;2.10;0.88;;;6.60;60.30;;;;;;6182264;23;20030;-77
2023/04/04 08:51:21;;;;;;;2.50;1.33;;;6.30;60.80;;;;;;6186704;23;20028;-79
2023/04/04 08:53:49;;;;;;;2.85;1.08;;;6.50;61.50;;;;;;6188421;23;20455;-77
2023/04/04 08:56:16;;;;;;;2.58;1.02;;;6.40;61.20;;;;;;6184928;23;20020;-77
2023/04/04 08:58:43;;;;;;;2.88;1.20;;;6.60;60.90;;;;;;6183854;23;20443;-76
2023/04/04 09:01:11;;;;;;;4.07;1.65;;;6.50;61.00;;;;;;6209694;23;20420;-78
2023/04/04 09:03:39;;;;;;;2.20;1.13;;;6.40;60.60;;;;;;6209673;23;20074;-77
2023/04/04 09:06:06;;;;;;;4.60;1.58;;;6.10;60.50;;;;;;6180720;23;20035;-75
2023/04/04 09:08:34;;;;;;;3.50;0.93;;;6.40;61.40;;;;;;6200470;23;20035;-79
2023/04/04 09:11:04;;;;;;;3.90;1.42;;;6.60;61.10;;;;;;6200940;23;20023;-78
2023/04/04 09:13:31;;;;;;;2.67;1.00;;;6.70;60.60;;;;;;6175216;23;20028;-78
2023/04/04 09:15:59;;;;;;;3.88;1.27;;;6.70;61.00;;;;;;6174090;23;20020;-79
2023/04/04 09:18:30;;;;;;;1.45;0.80;;;6.90;61.20;;;;;;6175569;23;20056;-80
2023/04/04 09:20:57;;;;;;;3.78;1.45;;;6.70;60.20;;;;;;6200130;23;20020;-77
2023/04/04 09:23:24;;;;;;;1.25;0.45;;;6.80;60.70;;;;;;6176029;23;20048;-77
2023/04/04 09:25:54;;;;;;;4.32;0.98;;;6.90;60.70;;;;;;6201012;23;20050;-76
2023/04/04 09:28:24;;;;;;;3.95;1.60;;;7.00;60.60;;;;;;6200068;23;20032;-78
2023/04/04 09:30:52;;;;;;;2.38;1.00;;;6.70;60.10;;;;;;6199021;23;20343;-78
2023/04/04 09:33:25;;;;;;;2.35;1.00;;;6.70;59.80;;;;;;6174080;23;20028;-79
2023/04/04 09:36:06;;;;;;;2.83;0.70;;;6.70;60.40;;;;;;6202010;23;20026;-79
2023/04/04 09:38:44;;;;;;;;;;;6.70;60.50;;;;;;6176639;23;20328;-77
2023/04/04 09:41:17;;;;;;;2.08;1.10;;;6.60;60.40;;;;;;6201984;23;20366;-78
2023/04/04 09:43:45;;;;;;;5.15;1.00;;;6.70;60.30;;;;;;6177410;23;20121;-79
2023/04/04 09:46:14;;;;;;;4.13;1.90;;;6.80;60.80;;;;;;6201806;23;20023;-78
2023/04/04 09:48:49;;;;;;;5.15;1.42;;;6.70;59.80;;;;;;6176242;23;20098;-78
2023/04/04 09:51:16;;;;;;;4.57;1.40;;;7.10;60.10;;;;;;6199456;23;20048;-76
2023/04/04 09:53:47;;;;;;;3.00;1.40;;;7.40;60.30;;;;;;6198405;23;20378;-78
2023/04/04 09:56:14;;;;;;;3.75;1.40;;;7.40;58.90;;;;;;6149454;23;20032;-78
2023/04/04 09:58:46;;;;;;;4.20;1.55;;;7.40;59.40;;;;;;6201511;23;20024;-76
2023/04/04 10:01:17;;;;;;;2.40;1.08;;;7.60;59.50;;;;;;6198974;23;20451;-80
2023/04/04 10:03:51;;;;;;;3.65;1.63;;;7.50;59.10;;;;;;6176290;23;20824;-79
2023/04/04 10:06:22;;;;;;;2.92;1.63;;;7.50;58.20;;;;;;6200044;23;20107;-78
2023/04/04 10:08:50;;;;;;;3.30;1.55;;;7.90;58.30;;;;;;6197950;23;20028;-78
2023/04/04 10:11:32;;;;;;;3.30;1.30;;;7.60;57.60;;;;;;6171415;23;20024;-77
2023/04/04 10:14:01;;;;;;;2.47;1.52;;;7.70;57.50;;;;;;6173062;23;20418;-79
2023/04/04 10:16:35;;;;;;;5.32;1.10;;;7.50;57.30;;;;;;6199349;23;20100;-79
2023/04/04 10:19:08;;;;;;;2.08;0.90;;;7.50;57.80;;;;;;6193880;23;20024;-78
2023/04/04 10:21:35;;;;;;;2.88;1.67;;;7.80;58.10;;;;;;6145735;23;20025;-79
2023/04/04 10:24:08;;;;;;;2.45;1.17;;;7.60;56.80;;;;;;6173747;23;20384;-78
2023/04/04 10:26:36;;;;;;;4.25;1.35;;;7.40;57.30;;;;;;6195705;23;20040;-79
2023/04/04 10:29:04;;;;;;;2.65;1.20;;;7.80;57.00;;;;;;6171301;23;20115;-79
2023/04/04 10:31:38;;;;;;;2.40;1.20;;;8.00;58.00;;;;;;6168945;23;20498;-78
2023/04/04 10:34:19;;;;;;;4.38;1.17;;;7.80;57.10;;;;;;6171230;23;20028;-79
2023/04/04 10:37:10;;;;;;;2.90;1.42;;;8.20;57.50;;;;;;6170772;23;20021;-79
2023/04/04 10:39:50;;;;;;;2.78;1.20;;;7.90;56.10;;;;;;6170601;23;20021;-78
2023/04/04 10:42:18;;;;;;;2.83;1.08;;;8.10;56.70;;;;;;6167205;23;20027;-80
2023/04/04 10:44:49;;;;;;;2.13;1.00;;;8.10;55.70;;;;;;6169937;23;20059;-80
2023/04/04 10:47:24;;;;;;;4.43;1.38;;;8.20;56.10;;;;;;6194635;23;20016;-77
2023/04/04 10:49:53;;;;;;;2.58;1.02;;;7.90;55.20;;;;;;6195253;23;20052;-77
2023/04/04 10:52:23;;;;;;;2.60;1.20;;;7.90;55.70;;;;;;6146633;23;20024;-80
2023/04/04 10:54:54;;;;;;;3.90;1.10;;;7.30;55.20;;;;;;6192071;23;20016;-79
2023/04/04 10:57:22;;;;;;;3.35;1.38;;;8.40;56.80;;;;;;6169645;23;20020;-79
2023/04/04 11:00:05;;;;;;;2.78;0.90;;;8.00;55.10;;;;;;6168894;23;20025;-79
2023/04/04 11:02:44;;;;;;;4.32;1.10;;;8.10;56.10;;;;;;6192922;23;20024;-78
2023/04/04 11:05:21;;;;;;;2.88;1.17;;;8.10;55.90;;;;;;6168131;23;20040;-80
2023/04/04 11:08:04;;;;;;;3.25;1.20;;;8.20;56.30;;;;;;6192654;23;20025;-80
2023/04/04 11:10:44;;;;;;;4.72;0.90;;;8.40;55.90;;;;;;6170070;23;20035;-79
2023/04/04 11:13:33;;;;;;;1.67;1.05;;;8.60;55.10;;;;;;6197471;23;20047;-79
2023/04/04 11:16:06;;;;;;;4.18;1.42;;;8.30;54.90;;;;;;6170007;23;20103;-79
2023/04/04 11:18:44;;;;;;;;;;;8.10;54.40;;;;;;6165287;23;20028;-79
2023/04/04 11:21:23;;;;;;;7.97;3.25;;;8.40;55.30;;;;;;6172888;23;20326;-80
2023/04/04 11:23:50;;;;;;;7.13;2.88;;;8.60;54.80;;;;;;6196470;23;20031;-80
2023/04/04 11:26:33;;;;;;;1.65;0.73;;;9.00;55.10;;;;;;6168665;23;20083;-80
2023/04/04 11:29:07;;;;;;;2.60;1.48;;;9.10;54.00;;;;;;6169396;23;20025;-79
2023/04/04 11:31:44;;;;;;;2.97;0.88;;;9.10;53.70;;;;;;6173333;23;20021;-79
2023/04/04 11:34:29;;;;;;;2.13;1.13;;;9.10;53.40;;;;;;6193014;23;20031;-79
2023/04/04 11:37:00;;;;;;;3.08;1.40;;;9.00;53.40;;;;;;6198790;23;20455;-78
2023/04/04 11:39:32;;;;;;;2.53;1.13;;;8.90;53.20;;;;;;6173811;23;20464;-78
2023/04/04 11:42:15;;;;;;;3.08;1.10;;;9.00;52.90;;;;;;6168670;23;20040;-78
2023/04/04 11:44:48;;;;;;;2.47;0.73;;;9.30;53.10;;;;;;6168778;23;20051;-77
2023/04/04 11:47:24;;;;;;;3.53;1.10;;;8.80;53.00;;;;;;6192876;23;20452;-79
2023/04/04 11:49:54;;;;;;;2.90;1.20;;;9.30;54.00;;;;;;6169719;23;20482;-79
2023/04/04 11:52:25;;;;;;;1.63;0.82;;;8.80;52.20;;;;;;6172526;23;20114;-77
2023/04/04 11:54:52;;;;;;;2.45;0.80;;;8.80;52.10;;;;;;6192537;23;20435;-79
2023/04/04 11:57:20;;;;;;;3.50;1.13;;;9.00;52.40;;;;;;6167974;23;20396;-79
2023/04/04 11:59:49;;;;;;;2.03;0.63;;;8.60;52.60;;;;;;6168544;23;20510;-79
2023/04/04 12:02:26;;;;;;;2.78;0.85;;;9.00;53.30;;;;;;6194579;23;20020;-79
2023/04/04 12:04:54;;;;;;;2.35;0.90;;;9.20;52.50;;;;;;6171231;23;20052;-79
2023/04/04 12:07:23;;;;;;;2.85;0.82;;;9.30;52.10;;;;;;6204664;23;20232;-79
2023/04/04 12:09:51;;;;;;;2.78;0.90;;;9.30;52.80;;;;;;6174004;23;20103;-78
2023/04/04 12:12:18;;;;;;;3.75;0.93;;;9.10;51.80;;;;;;6198551;23;20564;-78
2023/04/04 12:14:47;;;;;;;2.83;1.15;;;9.10;52.80;;;;;;6173803;23;20162;-79
2023/04/04 12:17:15;;;;;;;5.38;2.40;;;9.10;52.00;;;;;;6174220;23;20024;-77
2023/04/04 12:19:43;;;;;;;4.50;1.50;;;9.30;52.30;;;;;;6198748;23;20016;-78
2023/04/04 12:22:10;;;;;;;2.03;0.90;;;9.30;52.30;;;;;;6198320;23;20054;-78
2023/04/04 12:24:38;;;;;;;1.95;0.88;;;9.00;52.10;;;;;;6174490;23;20422;-77
2023/04/04 12:27:05;;;;;;;7.07;0.70;;;9.10;52.30;;;;;;6173417;23;20035;-79
2023/04/04 12:29:37;;;;;;;2.78;1.05;;;9.00;52.80;;;;;;6198541;23;20550;-80
2023/04/04 12:32:06;;;;;;;3.70;0.90;;;9.10;52.80;;;;;;6173453;23;20020;-79
2023/04/04 12:34:41;;;;;;;2.10;0.93;;;9.10;53.30;;;;;;6175592;23;20477;-78
2023/04/04 12:37:10;;;;;;;2.78;0.93;;;9.00;52.70;;;;;;6174478;23;20358;-78
2023/04/04 12:39:47;;;;;;;1.85;0.85;;;8.90;52.00;;;;;;6173370;23;20020;-79
2023/04/04 12:42:34;;;;;;;3.70;1.23;;;8.90;51.60;;;;;;6137986;23;20480;-78
2023/04/04 12:45:03;;;;;;;3.53;1.20;;;8.90;52.40;;;;;;6136565;23;20017;-79
2023/04/04 12:47:31;;;;;;;3.47;1.40;;;9.20;53.30;;;;;;6141478;23;20372;-79
2023/04/04 12:49:58;;;;;;;3.10;0.80;;;9.20;52.70;;;;;;6138877;23;20022;-79
2023/04/04 12:52:31;;;;;;;2.97;0.70;;;8.90;51.80;;;;;;6138791;23;20482;-79
2023/04/04 12:55:09;;;;;;;2.92;0.98;;;9.40;52.60;;;;;;6113617;23;20120;-78
2023/04/04 12:57:38;;;;;;;2.45;1.02;;;9.20;52.60;;;;;;6140634;23;20062;-79
2023/04/04 13:00:07;;;;;;;4.20;1.10;;;9.30;53.50;;;;;;6112651;23;20519;-79
2023/04/04 13:02:37;;;;;;;2.10;0.90;;;9.30;52.30;;;;;;6142698;23;20025;-76
2023/04/04 13:05:06;;;;;;;2.50;0.93;;;9.20;52.80;;;;;;6113655;23;20033;-79
2023/04/04 13:07:42;;;;;;;5.47;1.42;;;9.20;52.50;;;;;;6113166;23;20087;-79
2023/04/04 13:10:13;;;;;;;2.97;0.93;;;8.90;52.50;;;;;;6118023;23;20025;-79
2023/04/04 13:13:00;;;;;;;3.35;0.93;;;8.90;52.20;;;;;;6138388;23;20522;-79
2023/04/04 13:15:48;;;;;;;2.50;0.95;;;9.10;52.80;;;;;;6116548;23;20048;-79
2023/04/04 13:18:23;;;;;;;3.80;1.00;;;9.30;52.50;;;;;;6112818;23;20025;-78
2023/04/04 13:20:52;;;;;;;3.50;1.05;;;9.40;52.10;;;;;;6186930;23;20515;-79
2023/04/04 13:23:20;;;;;;;2.55;0.90;;;9.80;52.30;;;;;;6181973;23;20095;-78
2023/04/04 13:25:47;;;;;;;2.83;1.30;;;10.00;52.00;;;;;;6203159;23;20520;-79
2023/04/04 13:28:15;;;;;;;2.70;1.80;;;10.00;51.70;;;;;;6177777;23;20028;-79
2023/04/04 13:30:47;;;;;;;3.92;0.80;;;9.90;51.50;;;;;;6203781;23;20130;-79
2023/04/04 13:33:17;;;;;;;5.10;1.05;;;9.70;51.30;;;;;;6174490;23;20034;-76
2023/04/04 13:35:45;;;;;;;6.50;2.38;;;9.70;52.40;;;;;;6175712;23;20047;-78
2023/04/04 13:38:12;;;;;;;1.80;0.80;;;9.90;52.90;;;;;;6201680;23;20328;-77
2023/04/04 13:40:39;;;;;;;3.53;1.05;;;9.80;51.20;;;;;;6177030;23;20422;-79
2023/04/04 13:43:07;;;;;;;3.17;1.10;;;9.80;51.10;;;;;;6198565;23;20128;-80
2023/04/04 13:45:34;;;;;;;2.45;1.10;;;10.00;51.80;;;;;;6200473;23;20027;-80
2023/04/04 13:48:02;;;;;;;2.30;0.93;;;10.00;51.10;;;;;;6206150;23;20376;-79
2023/04/04 13:50:31;;;;;;;2.55;0.80;;;10.00;50.80;;;;;;6203761;23;20016;-77
2023/04/04 13:52:58;;;;;;;1.60;0.70;;;9.90;51.20;;;;;;6176579;23;20498;-78
2023/04/04 13:55:26;;;;;;;4.00;1.38;;;9.90;51.00;;;;;;6199692;23;20098;-78
2023/04/04 13:57:53;;;;;;;2.97;1.40;;;10.00;50.90;;;;;;6202145;23;20123;-77
2023/04/04 14:00:21;;;;;;;4.10;1.10;;;10.00;51.00;;;;;;6200573;23;20020;-79
2023/04/04 14:02:50;;;;;;;2.67;1.25;;;9.90;50.70;;;;;;6200745;23;20019;-79
2023/04/04 14:05:21;;;;;;;1.70;0.90;;;9.80;50.60;;;;;;6200876;23;20442;-79
2023/04/04 14:07:48;;;;;;;3.28;0.60;;;9.70;50.00;;;;;;6176339;23;20386;-80
2023/04/04 14:10:15;;;;;;;5.38;1.30;;;9.80;50.00;;;;;;6175871;23;20074;-79
2023/04/04 14:12:43;;;;;;;3.78;1.00;;;9.80;49.60;;;;;;6176558;23;20074;-80
2023/04/04 14:15:11;;;;;;;2.20;0.73;;;9.80;49.90;;;;;;6180056;23;20020;-78
2023/04/04 14:17:38;;;;;;;2.40;0.93;;;9.80;49.90;;;;;;6173156;23;20370;-79
2023/04/04 14:20:07;;;;;;;2.85;1.13;;;9.80;49.10;;;;;;6199809;23;20059;-78
2023/04/04 14:22:35;;;;;;;3.22;1.40;;;9.90;51.70;;;;;;6175640;23;20020;-79
2023/04/04 14:25:03;;;;;;;2.30;1.30;;;10.00;50.30;;;;;;6179083;23;20020;-79
2023/04/04 14:27:31;;;;;;;3.63;0.93;;;9.70;49.30;;;;;;6176543;23;20027;-80
2023/04/04 14:29:58;;;;;;;3.45;1.80;;;9.60;49.40;;;;;;6197872;23;20024;-78
2023/04/04 14:32:26;;;;;;;1.95;1.00;;;9.60;49.70;;;;;;6175873;23;20035;-78
2023/04/04 14:34:53;;;;;;;2.88;1.52;;;9.60;49.00;;;;;;6180549;23;20028;-78